createdAt,value
2019-04-30T00:00:38.400Z,2.73
2019-04-30T00:02:50.588Z,2.57
2019-04-30T00:04:56.997Z,3.10
2019-04-30T00:07:01.938Z,2.83
2019-04-30T00:09:09.640Z,2.70
2019-04-30T00:11:19.483Z,2.67
2019-04-30T00:13:23.209Z,2.87
2019-04-30T00:15:28.079Z,3.00
2019-04-30T00:17:32.844Z,2.70
2019-04-30T00:19:37.523Z,2.97
2019-04-30T00:21:42.345Z,4.40
2019-04-30T00:23:48.639Z,3.03
2019-04-30T00:25:58.403Z,2.50
2019-04-30T00:28:00.184Z,2.57
2019-04-30T00:30:08.961Z,2.80
2019-04-30T00:32:15.780Z,2.70
2019-04-30T00:34:20.285Z,2.53
2019-04-30T00:36:29.036Z,2.70
2019-04-30T00:38:34.267Z,2.23
2019-04-30T00:40:38.078Z,2.70
2019-04-30T00:42:42.931Z,2.73
2019-04-30T00:44:47.675Z,2.90
2019-04-30T00:46:52.496Z,2.53
2019-04-30T00:49:08.846Z,2.40
2019-04-30T00:51:26.037Z,2.60
2019-04-30T00:53:30.805Z,2.43
2019-04-30T00:55:40.226Z,2.60
2019-04-30T00:57:43.898Z,2.30
2019-04-30T00:59:48.490Z,3.00
2019-04-30T01:02:12.619Z,2.73
2019-04-30T01:04:24.511Z,2.23
2019-04-30T01:06:28.782Z,2.33
2019-04-30T01:08:35.847Z,2.30
2019-04-30T01:10:40.778Z,2.70
2019-04-30T01:12:47.992Z,2.43
2019-04-30T01:14:52.258Z,2.87
2019-04-30T01:16:57.034Z,2.10
2019-04-30T01:19:05.746Z,2.43
2019-04-30T01:21:11.235Z,3.03
2019-04-30T01:23:16.103Z,2.60
2019-04-30T01:25:20.874Z,2.60
2019-04-30T01:27:46.614Z,2.57
2019-04-30T01:29:52.558Z,2.60
2019-04-30T01:31:58.614Z,2.67
2019-04-30T01:34:05.194Z,2.30
2019-04-30T01:36:13.311Z,2.67
2019-04-30T01:38:16.230Z,3.27
2019-04-30T01:40:20.982Z,2.67
2019-04-30T01:42:26.076Z,2.23
2019-04-30T01:44:30.790Z,2.90
2019-04-30T01:46:35.528Z,2.37
2019-04-30T01:48:43.609Z,2.70
2019-04-30T01:50:48.688Z,2.70
2019-04-30T01:52:53.205Z,2.73
2019-04-30T01:54:58.675Z,2.83
2019-04-30T01:57:19.265Z,2.73
2019-04-30T01:59:29.155Z,2.77
2019-04-30T02:01:38.926Z,2.90
2019-04-30T02:03:43.142Z,2.50
2019-04-30T02:05:49.714Z,2.83
2019-04-30T02:07:54.264Z,2.63
2019-04-30T02:09:59.038Z,2.90
2019-04-30T02:12:03.786Z,3.03
2019-04-30T02:14:09.030Z,3.00
2019-04-30T02:16:14.010Z,2.63
2019-04-30T02:18:19.496Z,3.47
2019-04-30T02:20:24.518Z,2.80
2019-04-30T02:22:31.206Z,2.53
2019-04-30T02:24:35.718Z,2.80
2019-04-30T02:26:40.389Z,2.87
2019-04-30T02:28:45.146Z,2.97
2019-04-30T02:30:50.677Z,3.20
2019-04-30T02:33:00.110Z,2.43
2019-04-30T02:35:24.952Z,2.70
2019-04-30T02:37:35.455Z,2.83
2019-04-30T02:39:40.467Z,2.80
2019-04-30T02:41:45.386Z,3.00
2019-04-30T02:43:50.424Z,2.70
2019-04-30T02:45:55.941Z,2.90
2019-04-30T02:48:01.013Z,2.73
2019-04-30T02:50:15.484Z,2.97
2019-04-30T02:52:13.047Z,2.73
2019-04-30T02:54:23.231Z,3.00
2019-04-30T02:56:27.145Z,2.73
2019-04-30T02:58:32.934Z,2.77
2019-04-30T03:00:39.416Z,2.97
2019-04-30T03:02:44.274Z,2.60
2019-04-30T03:04:50.265Z,2.83
2019-04-30T03:06:55.071Z,2.83
2019-04-30T03:09:01.127Z,2.73
2019-04-30T03:11:09.762Z,2.50
2019-04-30T03:13:14.045Z,3.13
2019-04-30T03:15:19.481Z,2.87
2019-04-30T03:17:42.052Z,3.23
2019-04-30T03:19:54.164Z,2.83
2019-04-30T03:22:00.585Z,3.30
2019-04-30T03:24:05.344Z,3.37
2019-04-30T03:26:12.968Z,2.37
2019-04-30T03:28:16.516Z,2.80
2019-04-30T03:30:22.206Z,2.97
2019-04-30T03:32:35.756Z,2.90
2019-04-30T03:34:33.560Z,2.80
2019-04-30T03:36:40.354Z,2.70
2019-04-30T03:38:46.352Z,2.53
2019-04-30T03:40:51.112Z,2.83
2019-04-30T03:42:56.058Z,3.17
2019-04-30T03:45:00.797Z,3.10
2019-04-30T03:47:05.720Z,3.00
2019-04-30T03:49:13.146Z,2.83
2019-04-30T03:51:16.889Z,3.17
2019-04-30T03:53:21.624Z,3.13
2019-04-30T03:55:26.405Z,3.00
2019-04-30T03:57:31.074Z,3.00
2019-04-30T03:59:35.844Z,2.97
2019-04-30T04:01:45.055Z,3.10
2019-04-30T04:04:10.025Z,3.30
2019-04-30T04:06:24.757Z,2.80
2019-04-30T04:08:34.088Z,2.80
2019-04-30T04:10:46.259Z,2.70
2019-04-30T04:12:52.673Z,3.27
2019-04-30T04:15:03.170Z,2.73
2019-04-30T04:17:03.968Z,3.27
2019-04-30T04:19:09.658Z,3.20
2019-04-30T04:21:16.905Z,3.00
2019-04-30T04:23:21.954Z,2.70
2019-04-30T04:25:29.841Z,3.13
2019-04-30T04:27:34.423Z,3.57
2019-04-30T04:29:40.328Z,3.60
2019-04-30T04:31:45.169Z,3.37
2019-04-30T04:33:52.678Z,3.40
2019-04-30T04:35:56.356Z,3.23
2019-04-30T04:38:01.126Z,3.30
2019-04-30T04:40:09.116Z,3.07
2019-04-30T04:42:12.863Z,3.17
2019-04-30T04:44:20.289Z,3.07
2019-04-30T04:46:23.930Z,2.77
2019-04-30T04:48:29.775Z,3.37
2019-04-30T04:50:34.758Z,2.93
2019-04-30T04:52:39.785Z,3.37
2019-04-30T04:54:44.690Z,2.90
2019-04-30T04:56:52.946Z,3.70
2019-04-30T04:58:55.843Z,3.03
2019-04-30T05:01:00.584Z,3.47
2019-04-30T05:03:09.958Z,3.10
2019-04-30T05:05:14.719Z,4.03
2019-04-30T05:07:19.671Z,3.10
2019-04-30T05:09:24.553Z,3.63
2019-04-30T05:11:31.599Z,3.20
2019-04-30T05:13:35.958Z,3.73
2019-04-30T05:15:40.721Z,4.00
2019-04-30T05:17:45.395Z,4.13
2019-04-30T05:19:50.140Z,4.50
2019-04-30T05:21:54.913Z,4.17
2019-04-30T05:23:59.675Z,3.77
2019-04-30T05:26:04.343Z,4.07
2019-04-30T05:28:09.057Z,4.03
2019-04-30T05:30:13.809Z,3.93
2019-04-30T05:32:19.704Z,4.50
2019-04-30T05:34:24.560Z,4.20
2019-04-30T05:36:29.361Z,4.03
2019-04-30T05:38:34.051Z,4.17
2019-04-30T05:40:39.802Z,5.13
2019-04-30T05:42:45.270Z,5.20
2019-04-30T05:44:50.090Z,5.50
2019-04-30T05:46:54.948Z,4.87
2019-04-30T05:48:59.692Z,5.80
2019-04-30T05:51:04.356Z,5.53
2019-04-30T05:53:09.149Z,5.77
2019-04-30T05:55:13.810Z,5.20
2019-04-30T05:57:19.738Z,5.27
2019-04-30T05:59:25.733Z,6.50
2019-04-30T06:01:30.488Z,5.70
2019-04-30T06:03:35.257Z,6.10
2019-04-30T06:05:40.051Z,5.37
2019-04-30T06:07:44.799Z,6.70
2019-04-30T06:09:51.450Z,5.07
2019-04-30T06:12:00.613Z,5.07
2019-04-30T06:14:25.310Z,5.00
2019-04-30T06:16:30.726Z,5.23
2019-04-30T06:18:35.424Z,5.67
2019-04-30T06:20:40.632Z,5.70
2019-04-30T06:22:45.484Z,5.60
2019-04-30T06:24:50.288Z,6.20
2019-04-30T06:26:55.038Z,6.57
2019-04-30T06:28:59.698Z,5.87
2019-04-30T06:31:04.422Z,5.67
2019-04-30T06:33:11.639Z,6.10
2019-04-30T06:35:15.548Z,6.90
2019-04-30T06:37:20.505Z,6.27
2019-04-30T06:39:26.362Z,6.70
2019-04-30T06:41:31.108Z,6.40
2019-04-30T06:43:35.862Z,6.37
2019-04-30T06:45:40.648Z,6.00
2019-04-30T06:47:45.408Z,6.07
2019-04-30T06:49:50.116Z,6.57
2019-04-30T06:51:54.853Z,6.53
2019-04-30T06:53:59.546Z,6.73
2019-04-30T06:56:04.338Z,5.83
2019-04-30T06:58:15.166Z,6.33
2019-04-30T07:00:15.506Z,6.60
2019-04-30T07:02:20.193Z,6.43
2019-04-30T07:04:24.987Z,5.47
2019-04-30T07:06:32.782Z,6.40
2019-04-30T07:08:55.909Z,6.50
2019-04-30T07:11:19.403Z,6.67
2019-04-30T07:13:29.711Z,6.77
2019-04-30T07:15:34.511Z,5.60
2019-04-30T07:17:40.690Z,6.27
2019-04-30T07:19:55.680Z,6.43
2019-04-30T07:21:51.934Z,6.90
2019-04-30T07:23:56.694Z,6.20
2019-04-30T07:26:01.455Z,6.77
2019-04-30T07:28:06.276Z,5.83
2019-04-30T07:30:11.345Z,5.90
2019-04-30T07:32:19.713Z,5.77
2019-04-30T07:34:44.967Z,7.30
2019-04-30T07:37:10.479Z,7.10
2019-04-30T07:38:56.898Z,7.13
2019-04-30T07:41:02.822Z,6.43
2019-04-30T07:43:09.104Z,6.03
2019-04-30T07:45:13.942Z,6.37
2019-04-30T07:47:19.482Z,6.37
2019-04-30T07:49:24.571Z,6.13
2019-04-30T07:51:31.398Z,6.10
2019-04-30T07:53:35.802Z,5.90
2019-04-30T07:55:40.589Z,6.33
2019-04-30T07:57:45.353Z,6.60
2019-04-30T07:59:50.120Z,6.07
2019-04-30T08:02:06.476Z,6.33
2019-04-30T08:04:19.177Z,6.03
2019-04-30T08:06:24.382Z,6.27
2019-04-30T08:08:30.363Z,6.17
2019-04-30T08:10:35.325Z,6.50
2019-04-30T08:12:43.142Z,6.47
2019-04-30T08:14:46.469Z,5.97
2019-04-30T08:16:51.390Z,6.20
2019-04-30T08:18:56.133Z,7.00
2019-04-30T08:21:01.088Z,6.30
2019-04-30T08:23:14.071Z,5.33
2019-04-30T08:25:12.675Z,6.63
2019-04-30T08:27:19.164Z,5.27
2019-04-30T08:29:23.837Z,5.93
2019-04-30T08:31:29.189Z,5.20
2019-04-30T08:33:34.301Z,4.67
2019-04-30T08:35:39.766Z,4.43
2019-04-30T08:37:45.089Z,4.87
2019-04-30T08:39:49.900Z,5.87
2019-04-30T08:41:54.593Z,5.20
2019-04-30T08:43:59.926Z,5.03
2019-04-30T08:46:04.723Z,5.67
2019-04-30T08:48:09.579Z,6.03
2019-04-30T08:50:14.338Z,6.53
2019-04-30T08:52:19.783Z,6.03
2019-04-30T08:54:24.884Z,5.67
2019-04-30T08:56:29.780Z,5.10
2019-04-30T08:58:35.027Z,5.43
2019-04-30T09:00:39.773Z,5.40
2019-04-30T09:02:44.612Z,5.57
2019-04-30T09:04:51.012Z,5.07
2019-04-30T09:06:56.681Z,5.47
2019-04-30T09:09:02.634Z,5.30
2019-04-30T09:11:21.832Z,5.57
2019-04-30T09:13:15.423Z,5.03
2019-04-30T09:15:20.199Z,5.37
2019-04-30T09:17:24.887Z,6.53
2019-04-30T09:19:30.180Z,5.23
2019-04-30T09:21:35.201Z,5.97
2019-04-30T09:23:49.410Z,5.57
2019-04-30T09:25:46.295Z,4.83
2019-04-30T09:27:51.073Z,5.70
2019-04-30T09:29:55.783Z,5.43
2019-04-30T09:32:00.572Z,5.87
2019-04-30T09:34:15.260Z,5.80
2019-04-30T09:36:11.767Z,6.83
2019-04-30T09:38:16.621Z,6.03
2019-04-30T09:40:21.373Z,5.83
2019-04-30T09:42:26.107Z,5.63
2019-04-30T09:44:31.142Z,6.27
2019-04-30T09:46:35.935Z,6.17
2019-04-30T09:48:40.688Z,6.87
2019-04-30T09:50:45.846Z,7.20
2019-04-30T09:52:50.992Z,6.33
2019-04-30T09:54:59.263Z,6.87
2019-04-30T09:57:09.105Z,7.10
2019-04-30T09:59:13.397Z,7.03
2019-04-30T10:01:18.058Z,6.63
2019-04-30T10:03:23.656Z,7.73
2019-04-30T10:05:29.238Z,7.77
2019-04-30T10:07:34.387Z,6.07
2019-04-30T10:09:39.138Z,6.27
2019-04-30T10:11:45.485Z,7.03
2019-04-30T10:13:50.238Z,7.33
2019-04-30T10:15:58.438Z,7.87
2019-04-30T10:18:03.077Z,6.27
2019-04-30T10:20:08.964Z,7.20
2019-04-30T10:22:13.830Z,6.30
2019-04-30T10:24:19.640Z,7.17
2019-04-30T10:26:24.534Z,8.07
2019-04-30T10:28:29.375Z,6.80
2019-04-30T10:30:37.103Z,6.40
2019-04-30T10:32:41.874Z,6.67
2019-04-30T10:34:46.614Z,7.63
2019-04-30T10:36:51.882Z,7.30
2019-04-30T10:38:56.789Z,6.47
2019-04-30T10:41:03.138Z,7.30
2019-04-30T10:43:08.920Z,8.10
2019-04-30T10:45:14.937Z,7.77
2019-04-30T10:47:19.724Z,8.27
2019-04-30T10:49:24.480Z,8.10
2019-04-30T10:51:29.354Z,6.73
2019-04-30T10:53:34.128Z,6.93
2019-04-30T10:55:38.907Z,7.60
2019-04-30T10:57:43.853Z,8.03
2019-04-30T10:59:48.780Z,7.30
2019-04-30T11:01:53.531Z,8.60
2019-04-30T11:03:58.378Z,8.23
2019-04-30T11:06:03.187Z,7.80
2019-04-30T11:08:07.944Z,7.40
2019-04-30T11:10:12.684Z,6.73
2019-04-30T11:12:19.268Z,7.27
2019-04-30T11:14:23.849Z,8.17
2019-04-30T11:16:29.764Z,10.07
2019-04-30T11:18:34.899Z,7.70
2019-04-30T11:20:39.982Z,8.13
2019-04-30T11:22:45.555Z,8.40
2019-04-30T11:24:58.351Z,7.63
2019-04-30T11:26:59.260Z,8.43
2019-04-30T11:29:04.194Z,7.27
2019-04-30T11:31:26.051Z,8.60
2019-04-30T11:33:31.333Z,6.90
2019-04-30T11:35:36.326Z,7.10
2019-04-30T11:37:41.111Z,7.80
2019-04-30T11:39:45.891Z,8.73
2019-04-30T11:41:50.647Z,8.63
2019-04-30T11:43:55.384Z,9.23
2019-04-30T11:46:38.368Z,9.00
2019-04-30T11:48:42.894Z,7.93
2019-04-30T11:50:49.564Z,6.67
2019-04-30T11:53:07.050Z,6.17
2019-04-30T11:55:00.555Z,7.63
2019-04-30T11:57:05.784Z,9.43
2019-04-30T11:59:10.506Z,7.17
2019-04-30T12:01:26.168Z,7.10
2019-04-30T12:03:31.953Z,6.23
2019-04-30T12:05:38.846Z,6.77
2019-04-30T12:07:44.829Z,9.00
2019-04-30T12:09:51.144Z,8.27
2019-04-30T12:11:58.919Z,10.00
2019-04-30T12:14:03.866Z,8.13
2019-04-30T12:16:08.743Z,8.03
2019-04-30T12:18:13.669Z,7.90
2019-04-30T12:20:19.657Z,8.33
2019-04-30T12:22:24.518Z,8.40
2019-04-30T12:24:30.897Z,7.80
2019-04-30T12:26:35.686Z,8.27
2019-04-30T12:28:40.372Z,7.40
2019-04-30T12:30:45.221Z,8.17
2019-04-30T12:32:51.143Z,7.17
2019-04-30T12:34:55.808Z,7.97
2019-04-30T12:37:00.493Z,7.33
2019-04-30T12:39:06.959Z,8.10
2019-04-30T12:41:11.822Z,10.07
2019-04-30T12:43:16.660Z,7.33
2019-04-30T12:45:21.432Z,9.87
2019-04-30T12:47:29.517Z,8.33
2019-04-30T12:49:41.872Z,7.50
2019-04-30T12:51:48.812Z,7.77
2019-04-30T12:53:56.549Z,8.37
2019-04-30T12:56:03.015Z,8.73
2019-04-30T12:58:09.820Z,8.70
2019-04-30T13:00:14.963Z,8.90
2019-04-30T13:02:19.645Z,8.17
2019-04-30T13:04:24.483Z,8.80
2019-04-30T13:06:29.807Z,8.13
2019-04-30T13:08:35.452Z,8.40
2019-04-30T13:10:41.560Z,8.33
2019-04-30T13:12:47.361Z,8.33
2019-04-30T13:14:54.788Z,8.27
2019-04-30T13:16:59.311Z,9.43
2019-04-30T13:19:04.072Z,9.33
2019-04-30T13:21:08.853Z,8.80
2019-04-30T13:23:13.606Z,8.33
2019-04-30T13:25:30.038Z,8.70
2019-04-30T13:27:24.900Z,7.67
2019-04-30T13:29:32.886Z,9.50
2019-04-30T13:31:37.757Z,8.53
2019-04-30T13:33:49.451Z,8.03
2019-04-30T13:35:53.554Z,9.33
2019-04-30T13:37:59.992Z,7.97
2019-04-30T13:40:12.103Z,8.23
2019-04-30T13:42:29.252Z,9.13
2019-04-30T13:44:35.931Z,8.10
2019-04-30T13:46:40.963Z,7.80
2019-04-30T13:48:45.627Z,8.30
2019-04-30T13:50:50.351Z,8.67
2019-04-30T13:52:55.091Z,8.47
2019-04-30T13:54:59.889Z,7.67
2019-04-30T13:57:04.641Z,8.70
2019-04-30T13:59:09.392Z,9.13
2019-04-30T14:01:14.182Z,8.87
2019-04-30T14:03:26.557Z,8.90
2019-04-30T14:05:31.249Z,8.47
2019-04-30T14:07:43.837Z,8.03
2019-04-30T14:09:48.747Z,8.13
2019-04-30T14:11:53.517Z,7.50
2019-04-30T14:13:59.326Z,8.77
2019-04-30T14:16:05.769Z,8.93
2019-04-30T14:18:13.523Z,7.47
2019-04-30T14:20:18.196Z,8.27
2019-04-30T14:22:23.023Z,8.63
2019-04-30T14:24:27.814Z,8.13
2019-04-30T14:26:32.555Z,9.70
2019-04-30T14:28:39.857Z,8.67
2019-04-30T14:30:44.654Z,8.30
2019-04-30T14:32:51.253Z,9.83
2019-04-30T14:34:56.003Z,9.27
2019-04-30T14:37:00.815Z,7.83
2019-04-30T14:39:14.414Z,9.53
2019-04-30T14:41:14.806Z,8.30
2019-04-30T14:43:39.462Z,7.83
2019-04-30T14:46:01.715Z,8.23
2019-04-30T14:48:19.994Z,8.33
2019-04-30T14:50:25.656Z,7.63
2019-04-30T14:52:32.081Z,7.97
2019-04-30T14:54:44.384Z,7.97
2019-04-30T14:56:56.644Z,8.63
2019-04-30T14:59:02.972Z,8.00
2019-04-30T15:01:19.364Z,8.53
2019-04-30T15:03:25.921Z,7.87
2019-04-30T15:05:39.010Z,7.93
2019-04-30T15:07:37.084Z,7.17
2019-04-30T15:09:41.796Z,8.00
2019-04-30T15:11:48.589Z,8.73
2019-04-30T15:13:52.966Z,7.93
2019-04-30T15:15:57.785Z,8.13
2019-04-30T15:18:02.546Z,8.43
2019-04-30T15:20:08.782Z,7.67
2019-04-30T15:22:14.819Z,7.80
2019-04-30T15:24:29.195Z,9.37
2019-04-30T15:26:33.559Z,6.90
2019-04-30T15:28:39.305Z,7.27
2019-04-30T15:30:44.797Z,7.00
2019-04-30T15:32:51.183Z,7.70
2019-04-30T15:34:55.947Z,6.97
2019-04-30T15:37:00.616Z,7.30
2019-04-30T15:39:23.502Z,7.27
2019-04-30T15:41:30.826Z,7.97
2019-04-30T15:43:35.981Z,7.37
2019-04-30T15:45:40.820Z,6.90
2019-04-30T15:47:48.582Z,6.93
2019-04-30T15:49:53.409Z,6.90
2019-04-30T15:51:58.103Z,6.73
2019-04-30T15:54:03.384Z,7.13
2019-04-30T15:56:08.586Z,6.33
2019-04-30T15:58:17.798Z,7.53
2019-04-30T16:00:22.842Z,6.80
2019-04-30T16:02:29.248Z,6.73
2019-04-30T16:04:38.542Z,6.27
2019-04-30T16:06:44.246Z,6.20
2019-04-30T16:08:50.565Z,6.40
2019-04-30T16:11:00.156Z,6.63
2019-04-30T16:13:04.979Z,6.23
2019-04-30T16:15:10.050Z,7.00
2019-04-30T16:17:20.732Z,6.87
2019-04-30T16:19:25.518Z,6.70
2019-04-30T16:21:30.312Z,6.00
2019-04-30T16:23:35.921Z,5.97
2019-04-30T16:25:40.727Z,6.40
2019-04-30T16:27:45.636Z,6.63
2019-04-30T16:29:50.324Z,6.90
2019-04-30T16:31:55.106Z,6.73
2019-04-30T16:33:59.795Z,7.47
2019-04-30T16:36:16.781Z,5.97
2019-04-30T16:38:21.455Z,6.83
2019-04-30T16:40:29.033Z,6.70
2019-04-30T16:42:34.344Z,6.30
2019-04-30T16:44:40.867Z,6.80
2019-04-30T16:46:46.731Z,6.13
2019-04-30T16:48:51.654Z,6.33
2019-04-30T16:50:56.358Z,8.03
2019-04-30T16:53:01.127Z,6.67
2019-04-30T16:55:07.576Z,6.20
2019-04-30T16:57:12.445Z,6.63
2019-04-30T16:59:38.988Z,6.07
2019-04-30T17:01:56.628Z,7.83
2019-04-30T17:03:52.124Z,6.93
2019-04-30T17:06:17.175Z,6.77
2019-04-30T17:08:23.607Z,7.30
2019-04-30T17:10:44.774Z,8.33
2019-04-30T17:12:53.860Z,7.33
2019-04-30T17:15:19.304Z,7.37
2019-04-30T17:17:24.064Z,6.00
2019-04-30T17:19:29.262Z,6.77
2019-04-30T17:21:34.102Z,6.50
2019-04-30T17:23:38.767Z,6.10
2019-04-30T17:25:43.515Z,7.17
2019-04-30T17:27:48.304Z,6.47
2019-04-30T17:29:53.041Z,6.80
2019-04-30T17:31:57.719Z,7.07
2019-04-30T17:34:02.497Z,6.10
2019-04-30T17:36:08.337Z,5.97
2019-04-30T17:38:13.587Z,6.63
2019-04-30T17:40:19.240Z,6.17
2019-04-30T17:42:24.196Z,6.57
2019-04-30T17:44:29.049Z,6.33
2019-04-30T17:46:33.865Z,6.57
2019-04-30T17:48:39.388Z,6.33
2019-04-30T17:50:44.316Z,5.90
2019-04-30T17:52:49.092Z,6.90
2019-04-30T17:54:53.750Z,5.77
2019-04-30T17:56:58.447Z,6.60
2019-04-30T17:59:03.279Z,5.63
2019-04-30T18:01:09.708Z,6.77
2019-04-30T18:03:14.582Z,6.37
2019-04-30T18:05:21.236Z,6.50
2019-04-30T18:07:29.535Z,7.20
2019-04-30T18:09:33.741Z,6.97
2019-04-30T18:11:39.626Z,6.37
2019-04-30T18:13:44.445Z,6.70
2019-04-30T18:15:49.193Z,5.50
2019-04-30T18:17:55.612Z,6.50
2019-04-30T18:20:02.002Z,5.63
2019-04-30T18:22:15.807Z,7.20
2019-04-30T18:24:23.958Z,7.00
2019-04-30T18:26:28.747Z,6.33
2019-04-30T18:28:35.034Z,6.27
2019-04-30T18:30:40.978Z,8.00
2019-04-30T18:32:45.970Z,6.77
2019-04-30T18:34:51.209Z,6.43
2019-04-30T18:36:56.040Z,5.17
2019-04-30T18:39:00.814Z,5.97
2019-04-30T18:41:09.330Z,5.30
2019-04-30T18:43:15.458Z,6.83
2019-04-30T18:45:20.197Z,7.60
2019-04-30T18:47:25.681Z,6.20
2019-04-30T18:49:30.567Z,6.23
2019-04-30T18:51:39.395Z,6.43
2019-04-30T18:53:43.797Z,6.07
2019-04-30T18:55:50.543Z,5.97
2019-04-30T18:57:56.767Z,6.50
2019-04-30T19:00:01.698Z,6.23
2019-04-30T19:02:08.937Z,6.70
2019-04-30T19:04:13.675Z,5.90
2019-04-30T19:06:23.782Z,6.00
2019-04-30T19:08:30.830Z,5.13
2019-04-30T19:10:47.549Z,5.83
2019-04-30T19:12:56.203Z,5.90
2019-04-30T19:15:05.171Z,5.63
2019-04-30T19:17:26.332Z,6.20
2019-04-30T19:19:36.618Z,5.40
2019-04-30T19:21:41.396Z,5.37
2019-04-30T19:23:46.429Z,5.63
2019-04-30T19:25:51.187Z,5.10
2019-04-30T19:28:09.578Z,6.43
2019-04-30T19:30:05.779Z,5.70
2019-04-30T19:32:10.557Z,5.93
2019-04-30T19:34:16.897Z,7.03
2019-04-30T19:36:33.938Z,6.23
2019-04-30T19:38:29.491Z,5.93
2019-04-30T19:40:34.383Z,6.07
2019-04-30T19:42:39.530Z,5.80
2019-04-30T19:44:56.122Z,5.10
2019-04-30T19:46:52.393Z,6.10
2019-04-30T19:48:58.550Z,7.27
2019-04-30T19:51:03.455Z,5.90
2019-04-30T19:53:08.829Z,6.17
2019-04-30T19:55:15.127Z,5.87
2019-04-30T19:57:20.593Z,5.77
2019-04-30T19:59:25.552Z,5.27
2019-04-30T20:01:30.238Z,6.80
2019-04-30T20:03:34.911Z,6.10
2019-04-30T20:05:39.693Z,5.37
2019-04-30T20:07:44.446Z,5.43
2019-04-30T20:10:00.274Z,5.33
2019-04-30T20:11:57.012Z,5.70
2019-04-30T20:14:01.859Z,5.67
2019-04-30T20:16:06.606Z,5.83
2019-04-30T20:18:11.482Z,5.30
2019-04-30T20:20:16.219Z,5.20
2019-04-30T20:22:21.122Z,4.83
2019-04-30T20:24:26.101Z,5.43
2019-04-30T20:26:30.847Z,5.93
2019-04-30T20:28:41.440Z,5.10
2019-04-30T20:30:41.933Z,4.77
2019-04-30T20:32:46.621Z,5.30
2019-04-30T20:34:51.394Z,5.87
2019-04-30T20:36:56.190Z,6.00
2019-04-30T20:39:15.956Z,5.10
2019-04-30T20:41:20.866Z,4.70
2019-04-30T20:43:25.624Z,4.67
2019-04-30T20:45:30.338Z,5.50
2019-04-30T20:47:35.160Z,5.43
2019-04-30T20:49:39.904Z,5.43
2019-04-30T20:51:53.561Z,4.97
2019-04-30T20:53:52.111Z,4.87
2019-04-30T20:55:56.868Z,5.37
2019-04-30T20:58:01.564Z,4.63
2019-04-30T21:00:06.614Z,4.93
2019-04-30T21:02:13.007Z,4.47
2019-04-30T21:04:20.577Z,5.27
2019-04-30T21:06:24.060Z,4.87
2019-04-30T21:08:28.828Z,4.83
2019-04-30T21:10:33.592Z,4.80
2019-04-30T21:12:39.690Z,4.47
2019-04-30T21:14:44.534Z,5.07
2019-04-30T21:16:49.214Z,5.10
2019-04-30T21:18:54.019Z,4.87
2019-04-30T21:20:59.628Z,4.87
2019-04-30T21:23:04.560Z,5.10
2019-04-30T21:25:10.937Z,4.63
2019-04-30T21:27:15.719Z,5.37
2019-04-30T21:29:20.514Z,4.43
2019-04-30T21:31:41.977Z,4.70
2019-04-30T21:33:49.265Z,4.20
2019-04-30T21:35:55.944Z,4.83
2019-04-30T21:38:02.457Z,4.43
2019-04-30T21:40:07.378Z,4.77
2019-04-30T21:42:13.772Z,5.13
2019-04-30T21:44:18.452Z,4.47
2019-04-30T21:46:23.116Z,5.37
2019-04-30T21:48:28.758Z,4.80
2019-04-30T21:50:33.676Z,4.87
2019-04-30T21:52:40.302Z,4.97
2019-04-30T21:54:44.898Z,4.60
2019-04-30T21:56:49.576Z,4.43
2019-04-30T21:58:54.324Z,4.70
2019-04-30T22:01:04.035Z,4.93
2019-04-30T22:03:09.926Z,4.00
2019-04-30T22:05:14.694Z,4.23
2019-04-30T22:07:19.654Z,5.20
2019-04-30T22:09:24.439Z,5.03
2019-04-30T22:11:29.731Z,5.10
2019-04-30T22:13:34.569Z,5.30
2019-04-30T22:15:39.267Z,5.20
2019-04-30T22:17:44.023Z,5.30
2019-04-30T22:19:49.129Z,5.90
2019-04-30T22:21:55.169Z,5.50
2019-04-30T22:23:59.835Z,4.67
2019-04-30T22:26:04.546Z,5.47
2019-04-30T22:28:09.209Z,4.80
2019-04-30T22:30:13.942Z,5.23
2019-04-30T22:32:18.653Z,5.03
2019-04-30T22:34:23.393Z,5.13
2019-04-30T22:36:41.939Z,5.17
2019-04-30T22:38:51.409Z,4.70
2019-04-30T22:40:56.159Z,4.67
2019-04-30T22:43:00.894Z,5.07
2019-04-30T22:45:08.899Z,5.03
2019-04-30T22:47:13.646Z,5.03
2019-04-30T22:49:18.332Z,4.90
2019-04-30T22:51:23.098Z,5.20
2019-04-30T22:53:27.843Z,5.10
2019-04-30T22:55:32.581Z,4.67
2019-04-30T22:57:37.372Z,5.07
2019-04-30T22:59:49.821Z,4.73
2019-04-30T23:01:56.017Z,4.80
2019-04-30T23:04:11.752Z,5.07
2019-04-30T23:06:16.512Z,4.60
2019-04-30T23:08:21.252Z,4.43
2019-04-30T23:10:26.069Z,4.90
2019-04-30T23:12:30.798Z,4.57
2019-04-30T23:14:35.538Z,4.93
2019-04-30T23:16:40.394Z,5.07
2019-04-30T23:18:45.162Z,4.70
2019-04-30T23:20:50.260Z,5.13
2019-04-30T23:22:55.004Z,5.30
2019-04-30T23:24:59.812Z,5.30
2019-04-30T23:27:04.568Z,5.27
2019-04-30T23:29:09.314Z,5.10
2019-04-30T23:31:14.010Z,4.73
2019-04-30T23:33:18.758Z,5.07
2019-04-30T23:35:23.520Z,4.97
2019-04-30T23:37:28.309Z,5.67
2019-04-30T23:39:33.062Z,5.37
2019-04-30T23:41:37.814Z,5.20
2019-04-30T23:43:42.608Z,5.20
2019-04-30T23:45:47.356Z,5.53
2019-04-30T23:47:52.120Z,5.07
2019-04-30T23:49:57.281Z,5.07
2019-04-30T23:52:02.038Z,5.07
2019-04-30T23:54:06.773Z,5.17
2019-04-30T23:56:11.558Z,5.67
2019-04-30T23:58:16.315Z,5.80
